createdAt,value
2019-05-30T00:04:25.312Z,73.86
2019-05-30T00:10:29.881Z,74.14
2019-05-30T00:16:34.527Z,74.19
2019-05-30T00:22:39.083Z,74.03
2019-05-30T00:28:43.716Z,74.18
2019-05-30T00:34:48.278Z,74.95
2019-05-30T00:40:52.912Z,74.53
2019-05-30T00:46:58.047Z,75.86
2019-05-30T00:53:02.914Z,75.87
2019-05-30T00:59:07.744Z,76.93
2019-05-30T01:05:12.694Z,77.12
2019-05-30T01:11:17.268Z,77.57
2019-05-30T01:17:21.894Z,78.14
2019-05-30T01:23:26.457Z,78.37
2019-05-30T01:29:31.013Z,77.90
2019-05-30T01:35:35.647Z,77.68
2019-05-30T01:41:40.219Z,77.88
2019-05-30T01:47:44.767Z,76.85
2019-05-30T01:53:49.330Z,76.77
2019-05-30T01:59:53.896Z,77.22
2019-05-30T02:05:58.894Z,76.62
2019-05-30T02:12:03.741Z,77.23
2019-05-30T02:18:09.816Z,77.55
2019-05-30T02:24:14.697Z,78.71
2019-05-30T02:30:19.644Z,79.38
2019-05-30T02:36:24.217Z,80.33
2019-05-30T02:42:28.784Z,79.95
2019-05-30T02:48:33.336Z,80.03
2019-05-30T02:54:37.974Z,80.32
2019-05-30T03:00:42.997Z,80.42
2019-05-30T03:06:48.045Z,79.27
2019-05-30T03:12:53.053Z,79.61
2019-05-30T03:18:57.949Z,79.08
2019-05-30T03:25:03.516Z,78.98
2019-05-30T03:31:21.134Z,80.32
2019-05-30T03:37:26.983Z,79.58
2019-05-30T03:43:22.208Z,79.89
2019-05-30T03:49:31.029Z,79.76
2019-05-30T03:55:37.853Z,80.16
2019-05-30T04:02:02.219Z,79.53
2019-05-30T04:08:09.972Z,80.18
2019-05-30T04:14:19.912Z,79.85
2019-05-30T04:20:24.481Z,79.02
2019-05-30T04:26:29.052Z,78.53
2019-05-30T04:32:33.618Z,78.40
2019-05-30T04:38:38.178Z,77.69
2019-05-30T04:44:42.741Z,76.74
2019-05-30T04:50:47.304Z,76.35
2019-05-30T04:56:51.878Z,75.25
2019-05-30T05:02:56.440Z,75.71
2019-05-30T05:09:01.092Z,74.72
2019-05-30T05:15:06.873Z,75.52
2019-05-30T05:21:12.716Z,74.52
2019-05-30T05:27:17.682Z,75.07
2019-05-30T05:33:22.646Z,74.35
2019-05-30T05:39:28.379Z,73.97
2019-05-30T05:45:32.998Z,73.12
2019-05-30T05:51:37.594Z,70.55
2019-05-30T05:57:42.241Z,72.79
2019-05-30T06:03:46.916Z,70.21
2019-05-30T06:09:51.553Z,68.76
2019-05-30T06:15:56.198Z,66.60
2019-05-30T06:22:00.804Z,65.45
2019-05-30T06:28:05.648Z,64.07
2019-05-30T06:34:10.229Z,63.71
2019-05-30T06:40:16.127Z,62.83
2019-05-30T06:46:21.998Z,62.48
2019-05-30T06:52:27.103Z,61.11
2019-05-30T06:58:45.762Z,62.12
2019-05-30T07:04:51.147Z,61.59
2019-05-30T07:10:44.676Z,60.95
2019-05-30T07:16:49.241Z,61.27
2019-05-30T07:22:53.831Z,60.27
2019-05-30T07:29:00.654Z,60.20
2019-05-30T07:35:07.361Z,58.23
2019-05-30T07:41:12.308Z,57.36
2019-05-30T07:47:16.957Z,59.10
2019-05-30T07:53:21.603Z,56.73
2019-05-30T07:59:26.398Z,51.44
2019-05-30T08:05:31.097Z,53.49
2019-05-30T08:11:35.688Z,50.56
2019-05-30T08:17:43.879Z,50.07
2019-05-30T08:23:46.548Z,48.16
2019-05-30T08:29:51.122Z,48.46
2019-05-30T08:35:55.710Z,48.97
2019-05-30T08:42:01.085Z,48.91
2019-05-30T08:48:05.794Z,48.38
2019-05-30T08:54:13.483Z,47.21
2019-05-30T09:00:17.287Z,46.62
2019-05-30T09:06:21.910Z,47.49
2019-05-30T09:12:26.487Z,45.88
2019-05-30T09:18:31.185Z,45.77
2019-05-30T09:24:35.876Z,45.66
2019-05-30T09:30:41.562Z,45.77
2019-05-30T09:36:46.991Z,48.37
2019-05-30T09:42:51.556Z,50.09
2019-05-30T09:48:56.127Z,48.95
2019-05-30T09:55:00.914Z,49.27
2019-05-30T10:01:05.786Z,50.56
2019-05-30T10:07:10.429Z,51.22
2019-05-30T10:13:15.145Z,53.85
2019-05-30T10:19:19.945Z,51.69
2019-05-30T10:25:24.581Z,54.19
2019-05-30T10:31:29.292Z,51.05
2019-05-30T10:37:33.942Z,51.50
2019-05-30T10:43:38.513Z,51.46
2019-05-30T10:49:43.120Z,52.68
2019-05-30T10:55:49.865Z,52.85
2019-05-30T11:01:54.875Z,53.52
2019-05-30T11:08:09.976Z,55.57
2019-05-30T11:14:14.616Z,56.77
2019-05-30T11:20:21.601Z,57.50
2019-05-30T11:26:26.211Z,55.20
2019-05-30T11:32:30.855Z,54.48
2019-05-30T11:38:35.573Z,51.41
2019-05-30T11:44:40.214Z,52.72
2019-05-30T11:50:44.863Z,56.21
2019-05-30T11:56:50.015Z,56.36
2019-05-30T12:02:54.803Z,55.75
2019-05-30T12:08:59.374Z,53.72
2019-05-30T12:15:08.918Z,53.92
2019-05-30T12:21:13.502Z,51.63
2019-05-30T12:27:18.096Z,52.15
2019-05-30T12:33:22.674Z,53.13
2019-05-30T12:39:27.268Z,50.99
2019-05-30T12:45:31.962Z,50.61
2019-05-30T12:51:36.596Z,51.65
2019-05-30T12:57:41.312Z,54.85
2019-05-30T13:03:45.898Z,54.54
2019-05-30T13:09:50.480Z,51.44
2019-05-30T13:15:55.134Z,52.48
2019-05-30T13:21:59.791Z,51.43
2019-05-30T13:28:07.181Z,49.27
2019-05-30T13:34:10.719Z,48.51
2019-05-30T13:40:24.956Z,50.14
2019-05-30T13:46:22.406Z,48.70
2019-05-30T13:52:26.990Z,48.98
2019-05-30T13:58:31.554Z,46.99
2019-05-30T14:04:36.124Z,49.67
2019-05-30T14:10:40.765Z,47.97
2019-05-30T14:16:45.418Z,49.06
2019-05-30T14:22:49.982Z,51.18
2019-05-30T14:28:54.558Z,53.47
2019-05-30T14:34:59.136Z,52.68
2019-05-30T14:41:04.840Z,55.57
2019-05-30T14:47:10.583Z,53.28
2019-05-30T14:53:15.191Z,54.72
2019-05-30T14:59:19.834Z,54.78
2019-05-30T15:05:24.571Z,54.67
2019-05-30T15:11:29.241Z,58.88
2019-05-30T15:17:33.819Z,60.83
2019-05-30T15:23:38.384Z,58.44
2019-05-30T15:29:42.974Z,58.53
2019-05-30T15:35:47.675Z,59.37
2019-05-30T15:41:52.258Z,61.64
2019-05-30T15:47:56.922Z,59.90
2019-05-30T15:54:01.567Z,61.90
2019-05-30T16:00:12.110Z,60.71
2019-05-30T16:06:16.855Z,60.92
2019-05-30T16:12:21.550Z,61.88
2019-05-30T16:18:26.125Z,60.59
2019-05-30T16:24:31.425Z,62.99
2019-05-30T16:30:36.150Z,63.48
2019-05-30T16:36:40.786Z,64.69
2019-05-30T16:42:45.359Z,63.50
2019-05-30T16:48:49.928Z,63.25
2019-05-30T16:54:54.523Z,63.96
2019-05-30T17:00:59.148Z,64.11
2019-05-30T17:07:03.884Z,63.63
2019-05-30T17:13:08.471Z,61.98
2019-05-30T17:19:13.057Z,62.35
2019-05-30T17:25:18.974Z,60.26
2019-05-30T17:31:24.024Z,59.40
2019-05-30T17:37:29.103Z,62.12
2019-05-30T17:43:33.730Z,63.37
2019-05-30T17:49:38.382Z,64.49
2019-05-30T17:55:42.962Z,65.48
2019-05-30T18:01:47.538Z,65.35
2019-05-30T18:07:52.106Z,64.07
2019-05-30T18:13:56.857Z,64.20
2019-05-30T18:20:01.511Z,64.64
2019-05-30T18:26:06.159Z,65.40
2019-05-30T18:32:10.724Z,66.43
2019-05-30T18:38:15.388Z,67.78
2019-05-30T18:44:20.631Z,69.00
2019-05-30T18:50:25.231Z,69.26
2019-05-30T18:56:30.767Z,70.58
2019-05-30T19:02:35.655Z,71.53
2019-05-30T19:08:40.417Z,71.92
2019-05-30T19:14:45.014Z,72.65
2019-05-30T19:20:49.597Z,73.80
2019-05-30T19:26:54.173Z,74.19
2019-05-30T19:32:58.829Z,73.75
2019-05-30T19:39:03.404Z,72.93
2019-05-30T19:45:13.395Z,71.62
2019-05-30T19:51:20.880Z,71.52
2019-05-30T19:57:24.344Z,71.26
2019-05-30T20:03:38.363Z,70.56
2019-05-30T20:09:35.281Z,72.37
2019-05-30T20:15:39.936Z,72.52
2019-05-30T20:21:44.603Z,72.91
2019-05-30T20:27:49.248Z,71.47
2019-05-30T20:33:53.822Z,70.89
2019-05-30T20:39:58.391Z,71.43
2019-05-30T20:46:02.975Z,70.84
2019-05-30T20:52:07.651Z,71.55
2019-05-30T20:58:12.286Z,72.77
2019-05-30T21:04:16.929Z,72.23
2019-05-30T21:10:21.860Z,73.80
2019-05-30T21:16:27.777Z,74.68
2019-05-30T21:22:32.430Z,74.87
2019-05-30T21:28:37.009Z,75.88
2019-05-30T21:34:42.341Z,77.40
2019-05-30T21:40:48.642Z,77.86
2019-05-30T21:46:53.344Z,78.35
2019-05-30T21:52:57.978Z,79.05
2019-05-30T21:59:02.558Z,79.58
2019-05-30T22:05:08.109Z,80.82
2019-05-30T22:11:12.751Z,80.76
2019-05-30T22:17:17.429Z,81.52
2019-05-30T22:23:22.014Z,81.79
2019-05-30T22:29:26.677Z,82.48
2019-05-30T22:35:31.307Z,83.63
2019-05-30T22:41:37.720Z,83.44
2019-05-30T22:47:42.284Z,84.08
2019-05-30T22:53:47.087Z,84.48
2019-05-30T22:59:52.943Z,85.25
2019-05-30T23:05:57.862Z,85.34
2019-05-30T23:12:02.437Z,84.85
2019-05-30T23:18:07.072Z,85.04
2019-05-30T23:24:11.826Z,85.74
2019-05-30T23:30:16.665Z,85.53
2019-05-30T23:36:21.239Z,85.95
2019-05-30T23:42:25.862Z,86.10
2019-05-30T23:48:30.507Z,86.78
2019-05-30T23:54:35.077Z,87.82
